createdAt,value
2023-01-29T00:09:41.641Z,-3.5
2023-01-29T00:19:44.079Z,-3.5
2023-01-29T00:29:45.860Z,-3.7
2023-01-29T00:39:48.477Z,-3.4
2023-01-29T00:59:51.784Z,-3.6
2023-01-29T01:09:54.337Z,-3.3
2023-01-29T01:19:56.314Z,-3.3
2023-01-29T01:29:58.763Z,-3.3
2023-01-29T01:40:00.492Z,-3.4
2023-01-29T01:50:03.115Z,-3.4
2023-01-29T02:00:05.605Z,-3.2
2023-01-29T02:10:07.416Z,-3.2
2023-01-29T02:20:09.473Z,-3.2
2023-01-29T02:30:12.021Z,-3.2
2023-01-29T02:40:14.609Z,-3.1
2023-01-29T02:50:17.281Z,-3.2
2023-01-29T03:00:18.971Z,-3.2
2023-01-29T03:10:21.296Z,-3.3
2023-01-29T03:20:23.325Z,-3.5
2023-01-29T03:30:25.248Z,-3.4
2023-01-29T03:40:26.950Z,-3.2
2023-01-29T03:50:29.639Z,-3.1
2023-01-29T04:00:31.656Z,-3
2023-01-29T04:10:33.884Z,-2.9
2023-01-29T04:20:35.794Z,-2.8
2023-01-29T04:30:38.227Z,-2.7
2023-01-29T04:40:40.729Z,-2.6
2023-01-29T04:50:42.462Z,-2.5
2023-01-29T05:00:44.938Z,-2.4
2023-01-29T05:10:46.933Z,-2.4
2023-01-29T05:20:48.866Z,-2.3
2023-01-29T05:30:51.575Z,-2.2
2023-01-29T05:40:53.637Z,-2.2
2023-01-29T05:50:55.835Z,-2.2
2023-01-29T06:00:58.146Z,-2.1
2023-01-29T06:11:00.744Z,-2
2023-01-29T06:21:03.187Z,-2
2023-01-29T06:31:21.246Z,-2
2023-01-29T06:41:07.845Z,-2
2023-01-29T07:01:25.312Z,-1.9
2023-01-29T07:11:15.286Z,-1.8
2023-01-29T07:21:17.176Z,-1.7
2023-01-29T07:31:19.824Z,-1.7
2023-01-29T07:51:23.720Z,-1.5
2023-01-29T08:01:25.663Z,-1.5
2023-01-29T08:11:28.272Z,-1.5
2023-01-29T08:21:30.331Z,-1.4
2023-01-29T08:31:32.967Z,-1.3
2023-01-29T08:41:35.519Z,-1.3
2023-01-29T08:51:38.081Z,-1.1
2023-01-29T09:01:39.937Z,-1.1
2023-01-29T09:21:44.061Z,-0.9
2023-01-29T09:31:45.951Z,-0.8
2023-01-29T09:41:47.926Z,-0.8
2023-01-29T09:51:50.176Z,-0.7
2023-01-29T10:01:52.655Z,-0.6
2023-01-29T10:11:57.610Z,-0.4
2023-01-29T10:21:57.347Z,-0.4
2023-01-29T10:31:59.795Z,-0.3
2023-01-29T10:42:01.423Z,-0.2
2023-01-29T10:52:03.579Z,-0.1
2023-01-29T11:02:06.243Z,0
2023-01-29T11:22:10.396Z,0.1
2023-01-29T11:32:12.404Z,0.1
2023-01-29T11:42:15.112Z,0.2
2023-01-29T11:52:16.667Z,0.2
2023-01-29T12:02:18.478Z,0.3
2023-01-29T12:12:20.593Z,0.5
2023-01-29T12:22:23.046Z,0.5
2023-01-29T12:32:25.640Z,0.6
2023-01-29T12:42:28.083Z,0.5
2023-01-29T12:52:30.034Z,0.5
2023-01-29T13:02:40.064Z,0.5
2023-01-29T13:12:41.834Z,0.5
2023-01-29T13:22:43.713Z,0.5
2023-01-29T13:32:47.326Z,0.5
2023-01-29T13:42:48.019Z,0.6
2023-01-29T13:52:49.867Z,0.6
2023-01-29T14:02:52.149Z,0.6
2023-01-29T14:12:54.020Z,0.7
2023-01-29T14:22:56.416Z,0.6
2023-01-29T14:32:58.373Z,0.6
2023-01-29T14:43:00.900Z,0.6
2023-01-29T14:53:03.189Z,0.6
2023-01-29T15:03:05.289Z,0.7
2023-01-29T15:13:07.127Z,0.6
2023-01-29T15:23:08.999Z,0.6
2023-01-29T15:33:10.828Z,0.7
2023-01-29T15:43:12.793Z,0.7
2023-01-29T15:53:14.822Z,0.7
2023-01-29T16:03:16.824Z,0.7
2023-01-29T16:13:19.055Z,0.7
2023-01-29T16:23:21.318Z,0.8
2023-01-29T16:33:23.256Z,0.8
2023-01-29T16:43:28.273Z,0.8
2023-01-29T16:53:27.505Z,0.8
2023-01-29T17:03:29.232Z,0.9
2023-01-29T17:23:33.670Z,1
2023-01-29T17:33:35.662Z,1.1
2023-01-29T17:53:46.576Z,1.1
2023-01-29T18:03:42.006Z,1.1
2023-01-29T18:13:44.568Z,1.1
2023-01-29T18:23:46.745Z,1.2
2023-01-29T18:33:49.266Z,1.2
2023-01-29T18:43:51.924Z,1.2
2023-01-29T19:34:02.763Z,1.1
2023-01-29T19:54:07.033Z,1.4
2023-01-29T20:14:11.260Z,1.5
2023-01-29T20:34:15.394Z,1.5
2023-01-29T20:54:20.056Z,1.6
2023-01-29T21:04:21.725Z,1.6
2023-01-29T21:14:23.953Z,1.6
2023-01-29T21:24:25.976Z,1.7
2023-01-29T21:54:33.202Z,1.9
2023-01-29T22:14:37.183Z,1.9
2023-01-29T22:24:38.883Z,1.9
2023-01-29T22:34:40.621Z,2
2023-01-29T22:44:42.957Z,2
2023-01-29T23:04:47.406Z,2
2023-01-29T23:24:52.036Z,2.2
2023-01-29T23:34:54.172Z,2.3
2023-01-29T23:44:56.549Z,2.3
2023-01-29T23:54:58.389Z,2.3
